Isle of Gigha, United Kingdom
Current Conditions -  °F | °C
As of 8:20 AM on Monday 26 Jan 2015 (Local Time) from EGPI Reporting Station
Rain Showers Rain Showers  
Wind Chill: 34°   Ceiling: Unl
Heat Index: 43°   Visibility: 4mi
Dew Point: 37°   Wind: 23mph
Humidity: 81%   Direction: 290°WNW
Pressure: 30.12"   Gusts: 45mph
Location:  55.68°N, 5.74°W
Report Text: EGPI 260820Z 29020G39KT 7000 SHGR SCT026 06/03 Q1020
Loading
Personal Weather Stations






























Interactive Weather Map New forecast layout! Learn more

10-Day Weather Forecast

Advertisements
Track Severe Weather on mobile